sensor_id;sensor_type;location;lat;lon;timestamp;P1;durP1;ratioP1;P2;durP2;ratioP2
15295;SDS011;7749;49.964;7.890;2022-12-18T00:03:58;74.27;;;49.57;;
15295;SDS011;7749;49.964;7.890;2022-12-18T00:06:28;70.47;;;49.37;;
15295;SDS011;7749;49.964;7.890;2022-12-18T00:08:57;68.20;;;47.83;;
15295;SDS011;7749;49.964;7.890;2022-12-18T00:11:26;65.60;;;46.43;;
15295;SDS011;7749;49.964;7.890;2022-12-18T00:13:56;67.63;;;45.83;;
15295;SDS011;7749;49.964;7.890;2022-12-18T00:16:25;67.33;;;47.60;;
15295;SDS011;7749;49.964;7.890;2022-12-18T00:18:54;70.80;;;48.77;;
15295;SDS011;7749;49.964;7.890;2022-12-18T00:21:24;68.87;;;48.50;;
15295;SDS011;7749;49.964;7.890;2022-12-18T00:23:52;70.27;;;48.07;;
15295;SDS011;7749;49.964;7.890;2022-12-18T00:26:21;72.33;;;47.87;;
15295;SDS011;7749;49.964;7.890;2022-12-18T00:28:51;69.37;;;47.10;;
15295;SDS011;7749;49.964;7.890;2022-12-18T00:31:20;70.37;;;46.77;;
15295;SDS011;7749;49.964;7.890;2022-12-18T00:33:49;67.87;;;46.47;;
15295;SDS011;7749;49.964;7.890;2022-12-18T00:36:25;62.90;;;44.43;;
15295;SDS011;7749;49.964;7.890;2022-12-18T00:38:58;66.97;;;47.90;;
15295;SDS011;7749;49.964;7.890;2022-12-18T00:41:26;64.17;;;46.63;;
15295;SDS011;7749;49.964;7.890;2022-12-18T00:44:15;67.77;;;46.67;;
15295;SDS011;7749;49.964;7.890;2022-12-18T00:46:45;71.23;;;48.13;;
15295;SDS011;7749;49.964;7.890;2022-12-18T00:49:14;67.17;;;48.00;;
15295;SDS011;7749;49.964;7.890;2022-12-18T00:51:44;70.63;;;48.23;;
15295;SDS011;7749;49.964;7.890;2022-12-18T00:54:12;66.00;;;48.20;;
15295;SDS011;7749;49.964;7.890;2022-12-18T00:56:40;66.93;;;47.67;;
15295;SDS011;7749;49.964;7.890;2022-12-18T00:59:17;67.80;;;47.83;;
15295;SDS011;7749;49.964;7.890;2022-12-18T01:01:47;65.23;;;46.70;;
15295;SDS011;7749;49.964;7.890;2022-12-18T01:04:15;70.20;;;48.07;;
15295;SDS011;7749;49.964;7.890;2022-12-18T01:06:43;68.73;;;50.17;;
15295;SDS011;7749;49.964;7.890;2022-12-18T01:09:11;67.47;;;48.17;;
15295;SDS011;7749;49.964;7.890;2022-12-18T01:11:38;72.87;;;49.30;;
15295;SDS011;7749;49.964;7.890;2022-12-18T01:14:09;69.33;;;49.47;;
15295;SDS011;7749;49.964;7.890;2022-12-18T01:16:37;70.13;;;47.40;;
15295;SDS011;7749;49.964;7.890;2022-12-18T01:19:04;68.50;;;47.10;;
15295;SDS011;7749;49.964;7.890;2022-12-18T01:21:32;66.50;;;46.67;;
15295;SDS011;7749;49.964;7.890;2022-12-18T01:24:00;71.37;;;49.37;;
15295;SDS011;7749;49.964;7.890;2022-12-18T01:26:28;64.60;;;46.70;;
15295;SDS011;7749;49.964;7.890;2022-12-18T01:28:56;65.80;;;47.53;;
15295;SDS011;7749;49.964;7.890;2022-12-18T01:31:28;67.37;;;46.93;;
15295;SDS011;7749;49.964;7.890;2022-12-18T01:33:57;65.80;;;46.77;;
15295;SDS011;7749;49.964;7.890;2022-12-18T01:36:29;68.77;;;47.43;;
15295;SDS011;7749;49.964;7.890;2022-12-18T01:38:59;63.73;;;46.07;;
15295;SDS011;7749;49.964;7.890;2022-12-18T01:41:29;66.97;;;46.90;;
15295;SDS011;7749;49.964;7.890;2022-12-18T01:47:59;66.53;;;47.23;;
15295;SDS011;7749;49.964;7.890;2022-12-18T01:52:47;63.47;;;46.13;;
15295;SDS011;7749;49.964;7.890;2022-12-18T01:55:20;67.77;;;48.27;;
15295;SDS011;7749;49.964;7.890;2022-12-18T01:57:55;66.37;;;48.00;;
15295;SDS011;7749;49.964;7.890;2022-12-18T02:00:25;68.87;;;47.30;;
15295;SDS011;7749;49.964;7.890;2022-12-18T02:02:54;69.70;;;47.47;;
15295;SDS011;7749;49.964;7.890;2022-12-18T02:08:45;66.93;;;48.67;;
15295;SDS011;7749;49.964;7.890;2022-12-18T02:14:23;65.47;;;46.93;;
15295;SDS011;7749;49.964;7.890;2022-12-18T02:22:18;62.10;;;45.50;;
15295;SDS011;7749;49.964;7.890;2022-12-18T02:27:54;64.70;;;46.70;;
15295;SDS011;7749;49.964;7.890;2022-12-18T02:30:28;68.27;;;47.70;;
15295;SDS011;7749;49.964;7.890;2022-12-18T02:32:59;66.37;;;47.97;;
15295;SDS011;7749;49.964;7.890;2022-12-18T02:35:29;65.93;;;47.13;;
15295;SDS011;7749;49.964;7.890;2022-12-18T02:37:58;69.07;;;48.47;;
15295;SDS011;7749;49.964;7.890;2022-12-18T02:40:26;68.30;;;48.20;;
15295;SDS011;7749;49.964;7.890;2022-12-18T02:42:55;70.70;;;49.63;;
15295;SDS011;7749;49.964;7.890;2022-12-18T02:45:29;72.73;;;49.87;;
15295;SDS011;7749;49.964;7.890;2022-12-18T02:47:56;67.77;;;49.20;;
15295;SDS011;7749;49.964;7.890;2022-12-18T02:50:34;69.50;;;48.60;;
15295;SDS011;7749;49.964;7.890;2022-12-18T02:56:17;71.60;;;48.87;;
15295;SDS011;7749;49.964;7.890;2022-12-18T02:58:58;70.67;;;49.20;;
15295;SDS011;7749;49.964;7.890;2022-12-18T03:06:58;70.13;;;50.00;;
15295;SDS011;7749;49.964;7.890;2022-12-18T03:09:35;64.67;;;47.37;;
15295;SDS011;7749;49.964;7.890;2022-12-18T03:12:17;70.60;;;50.13;;
15295;SDS011;7749;49.964;7.890;2022-12-18T03:15:14;71.57;;;49.83;;
15295;SDS011;7749;49.964;7.890;2022-12-18T03:17:50;64.60;;;47.63;;
15295;SDS011;7749;49.964;7.890;2022-12-18T03:20:26;68.00;;;47.77;;
15295;SDS011;7749;49.964;7.890;2022-12-18T03:23:06;65.57;;;46.27;;
15295;SDS011;7749;49.964;7.890;2022-12-18T03:25:39;65.67;;;47.43;;
15295;SDS011;7749;49.964;7.890;2022-12-18T03:28:11;65.60;;;47.23;;
15295;SDS011;7749;49.964;7.890;2022-12-18T03:30:41;63.73;;;46.10;;
15295;SDS011;7749;49.964;7.890;2022-12-18T03:33:13;67.30;;;48.57;;
15295;SDS011;7749;49.964;7.890;2022-12-18T03:35:50;63.50;;;46.60;;
15295;SDS011;7749;49.964;7.890;2022-12-18T03:38:18;62.93;;;47.07;;
15295;SDS011;7749;49.964;7.890;2022-12-18T03:46:05;60.83;;;45.70;;
15295;SDS011;7749;49.964;7.890;2022-12-18T03:49:03;63.30;;;46.57;;
15295;SDS011;7749;49.964;7.890;2022-12-18T03:54:27;60.63;;;44.90;;
15295;SDS011;7749;49.964;7.890;2022-12-18T03:56:58;60.37;;;45.67;;
15295;SDS011;7749;49.964;7.890;2022-12-18T03:59:47;58.60;;;42.93;;
15295;SDS011;7749;49.964;7.890;2022-12-18T04:02:18;61.27;;;45.50;;
15295;SDS011;7749;49.964;7.890;2022-12-18T04:04:50;54.90;;;43.50;;
15295;SDS011;7749;49.964;7.890;2022-12-18T04:07:21;55.97;;;43.17;;
15295;SDS011;7749;49.964;7.890;2022-12-18T04:09:50;60.93;;;44.03;;
15295;SDS011;7749;49.964;7.890;2022-12-18T04:12:26;57.07;;;44.60;;
15295;SDS011;7749;49.964;7.890;2022-12-18T04:14:55;61.93;;;45.43;;
15295;SDS011;7749;49.964;7.890;2022-12-18T04:17:23;58.77;;;45.40;;
15295;SDS011;7749;49.964;7.890;2022-12-18T04:19:50;62.17;;;46.23;;
15295;SDS011;7749;49.964;7.890;2022-12-18T04:22:18;60.50;;;45.03;;
15295;SDS011;7749;49.964;7.890;2022-12-18T04:24:46;61.60;;;44.33;;
15295;SDS011;7749;49.964;7.890;2022-12-18T04:27:14;62.10;;;46.03;;
15295;SDS011;7749;49.964;7.890;2022-12-18T04:29:41;62.97;;;45.57;;
15295;SDS011;7749;49.964;7.890;2022-12-18T04:32:09;58.83;;;45.03;;
15295;SDS011;7749;49.964;7.890;2022-12-18T04:34:37;60.60;;;45.00;;
15295;SDS011;7749;49.964;7.890;2022-12-18T04:37:04;62.37;;;45.40;;
15295;SDS011;7749;49.964;7.890;2022-12-18T04:39:32;59.60;;;45.43;;
15295;SDS011;7749;49.964;7.890;2022-12-18T04:42:02;64.23;;;46.03;;
15295;SDS011;7749;49.964;7.890;2022-12-18T04:44:30;59.97;;;45.53;;
15295;SDS011;7749;49.964;7.890;2022-12-18T04:47:01;64.20;;;46.47;;
15295;SDS011;7749;49.964;7.890;2022-12-18T04:49:28;61.97;;;45.83;;
15295;SDS011;7749;49.964;7.890;2022-12-18T04:51:56;65.47;;;46.37;;
15295;SDS011;7749;49.964;7.890;2022-12-18T04:54:23;64.83;;;46.07;;
15295;SDS011;7749;49.964;7.890;2022-12-18T04:56:51;66.93;;;46.97;;
15295;SDS011;7749;49.964;7.890;2022-12-18T04:59:19;66.10;;;47.60;;
15295;SDS011;7749;49.964;7.890;2022-12-18T05:01:47;78.70;;;55.80;;
15295;SDS011;7749;49.964;7.890;2022-12-18T05:04:15;179.93;;;115.73;;
15295;SDS011;7749;49.964;7.890;2022-12-18T05:06:44;112.50;;;75.33;;
15295;SDS011;7749;49.964;7.890;2022-12-18T05:09:11;92.97;;;65.83;;
15295;SDS011;7749;49.964;7.890;2022-12-18T05:11:39;76.80;;;54.13;;
15295;SDS011;7749;49.964;7.890;2022-12-18T05:14:06;71.17;;;53.87;;
15295;SDS011;7749;49.964;7.890;2022-12-18T05:16:34;61.90;;;45.47;;
15295;SDS011;7749;49.964;7.890;2022-12-18T05:19:02;56.37;;;44.67;;
15295;SDS011;7749;49.964;7.890;2022-12-18T05:21:30;57.63;;;44.37;;
15295;SDS011;7749;49.964;7.890;2022-12-18T05:23:57;61.97;;;45.83;;
15295;SDS011;7749;49.964;7.890;2022-12-18T05:26:25;63.27;;;46.63;;
15295;SDS011;7749;49.964;7.890;2022-12-18T05:28:53;65.40;;;47.97;;
15295;SDS011;7749;49.964;7.890;2022-12-18T05:31:23;58.97;;;44.93;;
15295;SDS011;7749;49.964;7.890;2022-12-18T05:33:51;58.53;;;45.27;;
15295;SDS011;7749;49.964;7.890;2022-12-18T05:36:19;62.87;;;46.93;;
15295;SDS011;7749;49.964;7.890;2022-12-18T05:38:47;56.90;;;43.87;;
15295;SDS011;7749;49.964;7.890;2022-12-18T05:41:15;63.07;;;46.00;;
15295;SDS011;7749;49.964;7.890;2022-12-18T05:43:43;58.00;;;43.83;;
15295;SDS011;7749;49.964;7.890;2022-12-18T05:46:11;59.93;;;45.03;;
15295;SDS011;7749;49.964;7.890;2022-12-18T05:48:42;61.87;;;46.23;;
15295;SDS011;7749;49.964;7.890;2022-12-18T05:51:11;61.07;;;44.87;;
15295;SDS011;7749;49.964;7.890;2022-12-18T05:53:42;57.73;;;41.83;;
15295;SDS011;7749;49.964;7.890;2022-12-18T05:56:14;49.23;;;39.60;;
15295;SDS011;7749;49.964;7.890;2022-12-18T05:58:43;53.07;;;41.50;;
15295;SDS011;7749;49.964;7.890;2022-12-18T06:01:12;58.07;;;42.90;;
15295;SDS011;7749;49.964;7.890;2022-12-18T06:03:45;54.63;;;41.83;;
15295;SDS011;7749;49.964;7.890;2022-12-18T06:08:45;62.50;;;46.40;;
15295;SDS011;7749;49.964;7.890;2022-12-18T06:11:15;57.17;;;46.10;;
15295;SDS011;7749;49.964;7.890;2022-12-18T06:13:45;59.33;;;44.93;;
15295;SDS011;7749;49.964;7.890;2022-12-18T06:16:13;63.47;;;45.67;;
15295;SDS011;7749;49.964;7.890;2022-12-18T06:18:41;58.93;;;44.23;;
15295;SDS011;7749;49.964;7.890;2022-12-18T06:21:09;59.20;;;43.43;;
15295;SDS011;7749;49.964;7.890;2022-12-18T06:23:36;57.37;;;43.10;;
15295;SDS011;7749;49.964;7.890;2022-12-18T06:26:09;62.40;;;43.97;;
15295;SDS011;7749;49.964;7.890;2022-12-18T06:28:38;69.00;;;48.13;;
15295;SDS011;7749;49.964;7.890;2022-12-18T06:31:06;66.93;;;48.23;;
15295;SDS011;7749;49.964;7.890;2022-12-18T06:33:34;67.57;;;48.87;;
15295;SDS011;7749;49.964;7.890;2022-12-18T06:36:04;71.53;;;49.80;;
15295;SDS011;7749;49.964;7.890;2022-12-18T06:38:37;67.77;;;48.63;;
15295;SDS011;7749;49.964;7.890;2022-12-18T06:41:08;69.00;;;48.90;;
15295;SDS011;7749;49.964;7.890;2022-12-18T06:43:36;64.80;;;48.70;;
15295;SDS011;7749;49.964;7.890;2022-12-18T06:46:05;69.40;;;48.73;;
15295;SDS011;7749;49.964;7.890;2022-12-18T06:48:33;67.30;;;48.37;;
15295;SDS011;7749;49.964;7.890;2022-12-18T06:51:02;78.07;;;53.70;;
15295;SDS011;7749;49.964;7.890;2022-12-18T06:53:31;72.93;;;51.17;;
15295;SDS011;7749;49.964;7.890;2022-12-18T06:56:05;70.20;;;48.10;;
15295;SDS011;7749;49.964;7.890;2022-12-18T06:58:39;66.53;;;48.97;;
15295;SDS011;7749;49.964;7.890;2022-12-18T07:01:09;74.73;;;50.83;;
15295;SDS011;7749;49.964;7.890;2022-12-18T07:03:38;72.47;;;49.77;;
15295;SDS011;7749;49.964;7.890;2022-12-18T07:06:14;72.57;;;49.33;;
15295;SDS011;7749;49.964;7.890;2022-12-18T07:08:44;74.43;;;49.07;;
15295;SDS011;7749;49.964;7.890;2022-12-18T07:11:12;64.20;;;46.27;;
15295;SDS011;7749;49.964;7.890;2022-12-18T07:13:40;65.80;;;47.57;;
15295;SDS011;7749;49.964;7.890;2022-12-18T07:16:12;63.93;;;47.40;;
15295;SDS011;7749;49.964;7.890;2022-12-18T07:18:50;63.77;;;47.27;;
15295;SDS011;7749;49.964;7.890;2022-12-18T07:21:18;62.73;;;46.20;;
15295;SDS011;7749;49.964;7.890;2022-12-18T07:23:46;59.67;;;45.27;;
15295;SDS011;7749;49.964;7.890;2022-12-18T07:26:16;57.00;;;43.47;;
15295;SDS011;7749;49.964;7.890;2022-12-18T07:28:46;55.27;;;46.17;;
15295;SDS011;7749;49.964;7.890;2022-12-18T07:31:15;59.27;;;44.90;;
15295;SDS011;7749;49.964;7.890;2022-12-18T07:33:45;59.50;;;45.63;;
15295;SDS011;7749;49.964;7.890;2022-12-18T07:36:13;60.37;;;46.53;;
15295;SDS011;7749;49.964;7.890;2022-12-18T07:38:41;57.80;;;45.70;;
15295;SDS011;7749;49.964;7.890;2022-12-18T07:41:10;63.17;;;47.33;;
15295;SDS011;7749;49.964;7.890;2022-12-18T07:43:39;58.83;;;46.00;;
15295;SDS011;7749;49.964;7.890;2022-12-18T07:46:08;59.90;;;44.97;;
15295;SDS011;7749;49.964;7.890;2022-12-18T07:48:40;58.57;;;45.10;;
15295;SDS011;7749;49.964;7.890;2022-12-18T07:51:12;59.20;;;45.87;;
15295;SDS011;7749;49.964;7.890;2022-12-18T07:53:41;64.27;;;47.40;;
15295;SDS011;7749;49.964;7.890;2022-12-18T07:56:10;63.27;;;45.87;;
15295;SDS011;7749;49.964;7.890;2022-12-18T07:58:57;59.37;;;45.73;;
15295;SDS011;7749;49.964;7.890;2022-12-18T08:01:25;60.70;;;45.20;;
15295;SDS011;7749;49.964;7.890;2022-12-18T08:03:54;58.10;;;44.33;;
15295;SDS011;7749;49.964;7.890;2022-12-18T08:06:21;54.43;;;42.83;;
15295;SDS011;7749;49.964;7.890;2022-12-18T08:08:51;56.40;;;43.53;;
15295;SDS011;7749;49.964;7.890;2022-12-18T08:11:19;57.93;;;42.87;;
15295;SDS011;7749;49.964;7.890;2022-12-18T08:13:47;58.40;;;44.43;;
15295;SDS011;7749;49.964;7.890;2022-12-18T08:16:16;56.43;;;43.57;;
15295;SDS011;7749;49.964;7.890;2022-12-18T08:18:44;56.97;;;42.90;;
15295;SDS011;7749;49.964;7.890;2022-12-18T08:23:46;53.70;;;42.67;;
15295;SDS011;7749;49.964;7.890;2022-12-18T08:26:15;55.20;;;43.00;;
15295;SDS011;7749;49.964;7.890;2022-12-18T08:28:45;54.87;;;42.00;;
15295;SDS011;7749;49.964;7.890;2022-12-18T08:31:14;54.60;;;41.77;;
15295;SDS011;7749;49.964;7.890;2022-12-18T08:33:42;52.37;;;40.90;;
15295;SDS011;7749;49.964;7.890;2022-12-18T08:36:10;53.83;;;41.77;;
15295;SDS011;7749;49.964;7.890;2022-12-18T08:38:38;56.10;;;42.27;;
15295;SDS011;7749;49.964;7.890;2022-12-18T08:41:06;57.20;;;43.10;;
15295;SDS011;7749;49.964;7.890;2022-12-18T08:43:38;53.87;;;42.60;;
15295;SDS011;7749;49.964;7.890;2022-12-18T08:46:31;63.77;;;47.67;;
15295;SDS011;7749;49.964;7.890;2022-12-18T08:49:01;64.67;;;50.40;;
15295;SDS011;7749;49.964;7.890;2022-12-18T08:51:43;74.10;;;56.83;;
15295;SDS011;7749;49.964;7.890;2022-12-18T08:54:11;77.40;;;59.93;;
15295;SDS011;7749;49.964;7.890;2022-12-18T08:56:40;81.47;;;58.30;;
15295;SDS011;7749;49.964;7.890;2022-12-18T08:59:08;78.87;;;61.70;;
15295;SDS011;7749;49.964;7.890;2022-12-18T09:01:45;78.47;;;57.57;;
15295;SDS011;7749;49.964;7.890;2022-12-18T09:04:13;75.37;;;56.47;;
15295;SDS011;7749;49.964;7.890;2022-12-18T09:06:41;63.13;;;49.67;;
15295;SDS011;7749;49.964;7.890;2022-12-18T09:09:09;50.03;;;38.70;;
15295;SDS011;7749;49.964;7.890;2022-12-18T09:11:37;49.50;;;39.87;;
15295;SDS011;7749;49.964;7.890;2022-12-18T09:14:05;50.37;;;40.07;;
15295;SDS011;7749;49.964;7.890;2022-12-18T09:16:33;50.03;;;40.77;;
15295;SDS011;7749;49.964;7.890;2022-12-18T09:19:02;50.43;;;40.77;;
15295;SDS011;7749;49.964;7.890;2022-12-18T09:21:32;50.03;;;39.73;;
15295;SDS011;7749;49.964;7.890;2022-12-18T09:24:03;50.30;;;40.23;;
15295;SDS011;7749;49.964;7.890;2022-12-18T09:26:35;53.70;;;41.10;;
15295;SDS011;7749;49.964;7.890;2022-12-18T09:29:03;54.80;;;42.73;;
15295;SDS011;7749;49.964;7.890;2022-12-18T09:31:31;51.00;;;40.83;;
15295;SDS011;7749;49.964;7.890;2022-12-18T09:33:59;50.10;;;41.00;;
15295;SDS011;7749;49.964;7.890;2022-12-18T09:36:26;48.10;;;40.10;;
15295;SDS011;7749;49.964;7.890;2022-12-18T09:38:54;50.27;;;39.73;;
15295;SDS011;7749;49.964;7.890;2022-12-18T09:41:27;52.07;;;40.93;;
15295;SDS011;7749;49.964;7.890;2022-12-18T09:46:49;51.13;;;40.43;;
15295;SDS011;7749;49.964;7.890;2022-12-18T09:49:29;50.83;;;42.23;;
15295;SDS011;7749;49.964;7.890;2022-12-18T09:52:00;51.30;;;41.43;;
15295;SDS011;7749;49.964;7.890;2022-12-18T09:54:36;52.27;;;41.67;;
15295;SDS011;7749;49.964;7.890;2022-12-18T09:57:10;54.70;;;42.67;;
15295;SDS011;7749;49.964;7.890;2022-12-18T09:59:51;52.83;;;40.93;;
15295;SDS011;7749;49.964;7.890;2022-12-18T10:02:23;55.57;;;38.90;;
15295;SDS011;7749;49.964;7.890;2022-12-18T10:07:55;52.43;;;40.53;;
15295;SDS011;7749;49.964;7.890;2022-12-18T10:13:28;51.90;;;37.80;;
15295;SDS011;7749;49.964;7.890;2022-12-18T10:24:51;53.80;;;38.07;;
15295;SDS011;7749;49.964;7.890;2022-12-18T10:27:25;56.77;;;39.27;;
15295;SDS011;7749;49.964;7.890;2022-12-18T10:29:54;56.57;;;37.70;;
15295;SDS011;7749;49.964;7.890;2022-12-18T10:32:24;54.00;;;36.73;;
15295;SDS011;7749;49.964;7.890;2022-12-18T10:34:55;54.97;;;37.63;;
15295;SDS011;7749;49.964;7.890;2022-12-18T10:37:28;52.33;;;35.23;;
15295;SDS011;7749;49.964;7.890;2022-12-18T10:42:35;52.70;;;35.23;;
15295;SDS011;7749;49.964;7.890;2022-12-18T10:45:05;49.23;;;35.00;;
15295;SDS011;7749;49.964;7.890;2022-12-18T10:47:47;53.43;;;37.63;;
15295;SDS011;7749;49.964;7.890;2022-12-18T10:50:22;52.80;;;36.33;;
15295;SDS011;7749;49.964;7.890;2022-12-18T10:53:17;49.50;;;34.40;;
15295;SDS011;7749;49.964;7.890;2022-12-18T10:55:48;53.33;;;36.87;;
15295;SDS011;7749;49.964;7.890;2022-12-18T10:58:28;58.03;;;38.77;;
15295;SDS011;7749;49.964;7.890;2022-12-18T11:04:16;57.77;;;38.57;;
15295;SDS011;7749;49.964;7.890;2022-12-18T11:06:28;52.33;;;36.90;;
15295;SDS011;7749;49.964;7.890;2022-12-18T11:09:07;52.50;;;36.83;;
15295;SDS011;7749;49.964;7.890;2022-12-18T11:11:50;52.23;;;37.53;;
15295;SDS011;7749;49.964;7.890;2022-12-18T11:14:25;50.80;;;37.03;;
15295;SDS011;7749;49.964;7.890;2022-12-18T11:16:56;51.87;;;35.80;;
15295;SDS011;7749;49.964;7.890;2022-12-18T11:19:46;51.63;;;37.40;;
15295;SDS011;7749;49.964;7.890;2022-12-18T11:22:21;53.27;;;37.80;;
15295;SDS011;7749;49.964;7.890;2022-12-18T11:24:57;56.17;;;38.83;;
15295;SDS011;7749;49.964;7.890;2022-12-18T11:27:48;51.73;;;37.00;;
15295;SDS011;7749;49.964;7.890;2022-12-18T11:32:54;54.37;;;40.30;;
15295;SDS011;7749;49.964;7.890;2022-12-18T11:35:30;54.73;;;38.77;;
15295;SDS011;7749;49.964;7.890;2022-12-18T11:38:20;54.27;;;38.93;;
15295;SDS011;7749;49.964;7.890;2022-12-18T11:44:19;55.33;;;41.67;;
15295;SDS011;7749;49.964;7.890;2022-12-18T11:46:55;55.53;;;39.73;;
15295;SDS011;7749;49.964;7.890;2022-12-18T11:49:32;49.80;;;37.27;;
15295;SDS011;7749;49.964;7.890;2022-12-18T11:52:21;53.83;;;37.73;;
15295;SDS011;7749;49.964;7.890;2022-12-18T11:55:00;55.20;;;38.67;;
15295;SDS011;7749;49.964;7.890;2022-12-18T12:00:16;50.27;;;37.77;;
15295;SDS011;7749;49.964;7.890;2022-12-18T12:02:58;55.40;;;38.87;;
15295;SDS011;7749;49.964;7.890;2022-12-18T12:14:08;48.83;;;35.20;;
15295;SDS011;7749;49.964;7.890;2022-12-18T12:19:48;48.57;;;34.47;;
15295;SDS011;7749;49.964;7.890;2022-12-18T12:22:26;44.43;;;34.77;;
15295;SDS011;7749;49.964;7.890;2022-12-18T12:25:21;48.70;;;35.33;;
15295;SDS011;7749;49.964;7.890;2022-12-18T12:33:17;44.87;;;32.80;;
15295;SDS011;7749;49.964;7.890;2022-12-18T12:36:01;43.87;;;32.30;;
15295;SDS011;7749;49.964;7.890;2022-12-18T12:38:41;44.50;;;33.20;;
15295;SDS011;7749;49.964;7.890;2022-12-18T12:41:19;45.47;;;34.43;;
15295;SDS011;7749;49.964;7.890;2022-12-18T12:44:13;42.70;;;32.83;;
15295;SDS011;7749;49.964;7.890;2022-12-18T12:46:49;41.40;;;31.77;;
15295;SDS011;7749;49.964;7.890;2022-12-18T12:49:22;43.57;;;33.20;;
15295;SDS011;7749;49.964;7.890;2022-12-18T12:52:16;43.93;;;33.73;;
15295;SDS011;7749;49.964;7.890;2022-12-18T12:54:54;42.03;;;32.10;;
15295;SDS011;7749;49.964;7.890;2022-12-18T12:57:33;43.40;;;31.47;;
15295;SDS011;7749;49.964;7.890;2022-12-18T13:00:05;43.90;;;32.03;;
15295;SDS011;7749;49.964;7.890;2022-12-18T13:08:24;48.50;;;33.93;;
15295;SDS011;7749;49.964;7.890;2022-12-18T13:10:57;41.23;;;32.27;;
15295;SDS011;7749;49.964;7.890;2022-12-18T13:16:21;43.83;;;34.20;;
15295;SDS011;7749;49.964;7.890;2022-12-18T13:18:53;45.23;;;35.10;;
15295;SDS011;7749;49.964;7.890;2022-12-18T13:21:28;45.83;;;34.70;;
15295;SDS011;7749;49.964;7.890;2022-12-18T13:26:53;44.37;;;35.17;;
15295;SDS011;7749;49.964;7.890;2022-12-18T13:29:40;45.97;;;36.53;;
15295;SDS011;7749;49.964;7.890;2022-12-18T13:32:22;49.97;;;37.80;;
15295;SDS011;7749;49.964;7.890;2022-12-18T13:37:53;45.20;;;35.00;;
15295;SDS011;7749;49.964;7.890;2022-12-18T13:48:34;47.80;;;36.23;;
15295;SDS011;7749;49.964;7.890;2022-12-18T13:51:05;46.87;;;35.67;;
15295;SDS011;7749;49.964;7.890;2022-12-18T13:53:43;45.87;;;35.70;;
15295;SDS011;7749;49.964;7.890;2022-12-18T13:56:22;48.20;;;36.53;;
15295;SDS011;7749;49.964;7.890;2022-12-18T14:01:52;48.90;;;38.00;;
15295;SDS011;7749;49.964;7.890;2022-12-18T14:04:31;47.00;;;37.30;;
15295;SDS011;7749;49.964;7.890;2022-12-18T14:09:40;51.33;;;38.37;;
15295;SDS011;7749;49.964;7.890;2022-12-18T14:12:14;47.23;;;37.07;;
15295;SDS011;7749;49.964;7.890;2022-12-18T14:15:03;47.13;;;36.37;;
15295;SDS011;7749;49.964;7.890;2022-12-18T14:17:41;50.57;;;38.23;;
15295;SDS011;7749;49.964;7.890;2022-12-18T14:20:15;47.57;;;36.57;;
15295;SDS011;7749;49.964;7.890;2022-12-18T14:22:45;46.67;;;36.00;;
15295;SDS011;7749;49.964;7.890;2022-12-18T14:25:29;49.23;;;38.50;;
15295;SDS011;7749;49.964;7.890;2022-12-18T14:30:41;48.13;;;39.17;;
15295;SDS011;7749;49.964;7.890;2022-12-18T14:33:17;48.47;;;37.50;;
15295;SDS011;7749;49.964;7.890;2022-12-18T14:41:01;50.53;;;38.77;;
15295;SDS011;7749;49.964;7.890;2022-12-18T14:43:34;50.13;;;37.67;;
15295;SDS011;7749;49.964;7.890;2022-12-18T14:46:05;40.00;;;27.20;;
15295;SDS011;7749;49.964;7.890;2022-12-18T14:48:53;48.53;;;37.03;;
15295;SDS011;7749;49.964;7.890;2022-12-18T14:51:28;52.37;;;39.57;;
15295;SDS011;7749;49.964;7.890;2022-12-18T14:53:59;50.03;;;38.87;;
15295;SDS011;7749;49.964;7.890;2022-12-18T14:56:32;51.27;;;43.50;;
15295;SDS011;7749;49.964;7.890;2022-12-18T14:59:19;49.43;;;41.83;;
15295;SDS011;7749;49.964;7.890;2022-12-18T15:02:04;48.67;;;41.40;;
15295;SDS011;7749;49.964;7.890;2022-12-18T15:04:45;50.00;;;41.93;;
15295;SDS011;7749;49.964;7.890;2022-12-18T15:07:15;51.10;;;41.80;;
15295;SDS011;7749;49.964;7.890;2022-12-18T15:09:44;53.83;;;43.43;;
15295;SDS011;7749;49.964;7.890;2022-12-18T15:12:41;53.20;;;43.03;;
15295;SDS011;7749;49.964;7.890;2022-12-18T15:18:04;54.73;;;46.03;;
15295;SDS011;7749;49.964;7.890;2022-12-18T15:23:23;54.20;;;44.67;;
15295;SDS011;7749;49.964;7.890;2022-12-18T15:26:00;53.10;;;42.83;;
15295;SDS011;7749;49.964;7.890;2022-12-18T15:28:36;54.97;;;42.57;;
15295;SDS011;7749;49.964;7.890;2022-12-18T15:36:21;54.83;;;44.33;;
15295;SDS011;7749;49.964;7.890;2022-12-18T15:38:54;67.60;;;47.90;;
15295;SDS011;7749;49.964;7.890;2022-12-18T15:41:32;54.77;;;43.70;;
15295;SDS011;7749;49.964;7.890;2022-12-18T15:44:02;55.40;;;43.43;;
15295;SDS011;7749;49.964;7.890;2022-12-18T15:46:43;53.53;;;42.20;;
15295;SDS011;7749;49.964;7.890;2022-12-18T15:49:11;57.57;;;44.73;;
15295;SDS011;7749;49.964;7.890;2022-12-18T15:51:39;53.77;;;43.87;;
15295;SDS011;7749;49.964;7.890;2022-12-18T15:54:09;58.90;;;48.87;;
15295;SDS011;7749;49.964;7.890;2022-12-18T15:56:42;59.20;;;45.70;;
15295;SDS011;7749;49.964;7.890;2022-12-18T15:59:28;58.13;;;44.53;;
15295;SDS011;7749;49.964;7.890;2022-12-18T16:01:56;58.00;;;42.23;;
15295;SDS011;7749;49.964;7.890;2022-12-18T16:04:24;56.97;;;40.03;;
15295;SDS011;7749;49.964;7.890;2022-12-18T16:06:52;59.53;;;42.27;;
15295;SDS011;7749;49.964;7.890;2022-12-18T16:09:43;56.33;;;41.47;;
15295;SDS011;7749;49.964;7.890;2022-12-18T16:12:15;57.87;;;42.10;;
15295;SDS011;7749;49.964;7.890;2022-12-18T16:14:52;56.00;;;40.03;;
15295;SDS011;7749;49.964;7.890;2022-12-18T16:17:20;58.80;;;41.77;;
15295;SDS011;7749;49.964;7.890;2022-12-18T16:19:47;56.80;;;41.77;;
15295;SDS011;7749;49.964;7.890;2022-12-18T16:22:17;56.97;;;42.60;;
15295;SDS011;7749;49.964;7.890;2022-12-18T16:24:50;55.33;;;41.30;;
15295;SDS011;7749;49.964;7.890;2022-12-18T16:27:18;56.23;;;42.03;;
15295;SDS011;7749;49.964;7.890;2022-12-18T16:29:46;56.17;;;42.33;;
15295;SDS011;7749;49.964;7.890;2022-12-18T16:32:18;54.20;;;41.97;;
15295;SDS011;7749;49.964;7.890;2022-12-18T16:34:47;57.37;;;42.77;;
15295;SDS011;7749;49.964;7.890;2022-12-18T16:37:15;57.33;;;42.13;;
15295;SDS011;7749;49.964;7.890;2022-12-18T16:39:43;56.30;;;43.03;;
15295;SDS011;7749;49.964;7.890;2022-12-18T16:42:15;57.13;;;42.77;;
15295;SDS011;7749;49.964;7.890;2022-12-18T16:44:47;58.93;;;44.80;;
15295;SDS011;7749;49.964;7.890;2022-12-18T16:47:16;60.20;;;44.10;;
15295;SDS011;7749;49.964;7.890;2022-12-18T16:49:46;56.30;;;44.47;;
15295;SDS011;7749;49.964;7.890;2022-12-18T16:52:19;58.07;;;43.40;;
15295;SDS011;7749;49.964;7.890;2022-12-18T16:54:57;57.83;;;43.23;;
15295;SDS011;7749;49.964;7.890;2022-12-18T16:57:24;57.00;;;42.37;;
15295;SDS011;7749;49.964;7.890;2022-12-18T16:59:52;56.33;;;43.40;;
15295;SDS011;7749;49.964;7.890;2022-12-18T17:02:21;57.43;;;42.70;;
15295;SDS011;7749;49.964;7.890;2022-12-18T17:04:56;56.53;;;41.13;;
15295;SDS011;7749;49.964;7.890;2022-12-18T17:07:25;62.53;;;43.30;;
15295;SDS011;7749;49.964;7.890;2022-12-18T17:09:54;58.70;;;42.10;;
15295;SDS011;7749;49.964;7.890;2022-12-18T17:12:22;59.03;;;42.13;;
15295;SDS011;7749;49.964;7.890;2022-12-18T17:14:49;61.60;;;43.17;;
15295;SDS011;7749;49.964;7.890;2022-12-18T17:17:17;60.00;;;43.23;;
15295;SDS011;7749;49.964;7.890;2022-12-18T17:19:49;58.77;;;42.50;;
15295;SDS011;7749;49.964;7.890;2022-12-18T17:22:17;60.20;;;42.47;;
15295;SDS011;7749;49.964;7.890;2022-12-18T17:24:46;60.20;;;41.23;;